Time;durP1;ratioP1;P1;durP2;ratioP2;P2;SDS_P1;SDS_P2;PMS_P1;PMS_P2;Temp;Humidity;BMP_temperature;BMP_pressure;BME280_temperature;BME280_humidity;BME280_pressure;Samples;Min_cycle;Max_cycle;Signal;HPM_P1;HPM_P2
2021/05/15 00:00:45;;;;;;;;;;;;;;;18.86;74.14;100503.69;4985769;28;1702;-47
2021/05/15 00:03:11;;;;;;;;;;;;;;;18.84;74.52;100503.84;4985721;28;1631;-47
2021/05/15 00:05:37;;;;;;;;;;;;;;;18.84;74.13;100506.53;4985416;28;1918;-47
2021/05/15 00:08:04;;;;;;;;;;;;;;;18.82;73.74;100491.56;4985070;28;1191;-47
2021/05/15 00:10:32;;;;;;;;;;;;;;;18.85;73.23;100507.34;4983658;28;1837;-47
2021/05/15 00:12:58;;;;;;;;;;;;;;;18.86;72.79;100501.00;4985558;28;1678;-46
2021/05/15 00:15:26;;;;;;;;;;;;;;;18.84;72.20;100498.47;4985482;28;1619;-46
2021/05/15 00:17:52;;;;;;;;;;;;;;;18.86;72.79;100498.31;4985581;28;1676;-46
2021/05/15 00:20:18;;;;;;;;;;;;;;;18.83;72.47;100495.94;4988162;28;1623;-47
2021/05/15 00:22:44;;;;;;;;;;;;;;;18.83;72.49;100491.41;4985628;28;1540;-46
2021/05/15 00:25:12;;;;;;;;;;;;;;;18.82;71.92;100486.19;4980828;28;1992;-46
2021/05/15 00:27:38;;;;;;;;;;;;;;;18.83;72.04;100495.94;4984853;28;1683;-46
2021/05/15 00:30:05;;;;;;;;;;;;;;;18.82;73.41;100486.19;4986281;28;1423;-46
2021/05/15 00:32:31;;;;;;;;;;;;;;;18.83;73.04;100499.47;4986116;28;1359;-46
2021/05/15 00:34:57;;;;;;;;;;;;;;;18.82;73.17;100486.19;4981579;28;2062;-46
2021/05/15 00:37:24;;;;;;;;;;;;;;;18.81;72.64;100474.63;4985629;28;1092;-46
2021/05/15 00:39:50;;;;;;;;;;;;;;;18.83;73.03;100483.38;4978543;28;1699;-46
2021/05/15 00:42:16;;;;;;;;;;;;;;;18.82;72.43;100487.06;4985223;28;1041;-46
2021/05/15 00:44:44;;;;;;;;;;;;;;;18.79;72.73;100471.25;4983752;28;1805;-46
2021/05/15 00:47:14;;;;;;;;;;;;;;;18.78;72.02;100472.22;4979205;28;1902;-46
2021/05/15 00:49:40;;;;;;;;;;;;;;;18.78;72.42;100471.34;4986947;28;1849;-46
2021/05/15 00:52:06;;;;;;;;;;;;;;;18.77;72.42;100467.00;4987023;28;1538;-46
2021/05/15 00:54:35;;;;;;;;;;;;;;;18.74;72.35;100456.56;4978477;28;1588;-46
2021/05/15 00:57:01;;;;;;;;;;;;;;;18.78;72.11;100469.56;4986456;28;1631;-46
2021/05/15 00:59:27;;;;;;;;;;;;;;;18.80;73.07;100466.75;4984862;28;1603;-48
2021/05/15 01:01:53;;;;;;;;;;;;;;;18.77;72.29;100462.47;4986343;28;1811;-47
2021/05/15 01:04:19;;;;;;;;;;;;;;;18.79;73.13;100479.28;4985644;28;1112;-46
2021/05/15 01:06:45;;;;;;;;;;;;;;;18.78;72.75;100469.56;4986441;28;1973;-45
2021/05/15 01:09:11;;;;;;;;;;;;;;;18.80;72.63;100472.09;4976169;28;1592;-46
2021/05/15 01:11:38;;;;;;;;;;;;;;;18.78;72.25;100477.59;4985833;28;1673;-46
2021/05/15 01:14:05;;;;;;;;;;;;;;;18.74;72.38;100470.81;4984519;28;1072;-46
2021/05/15 01:16:31;;;;;;;;;;;;;;;18.71;71.90;100472.94;4986139;28;1750;-46
2021/05/15 01:18:57;;;;;;;;;;;;;;;18.73;71.54;100476.31;4985989;28;1640;-46
2021/05/15 01:21:24;;;;;;;;;;;;;;;18.73;72.22;100461.06;4983230;28;1769;-46
2021/05/15 01:23:50;;;;;;;;;;;;;;;18.72;72.09;100458.53;4977888;28;1103;-46
2021/05/15 01:26:17;;;;;;;;;;;;;;;18.72;72.28;100464.75;4986260;28;1906;-46
2021/05/15 01:28:43;;;;;;;;;;;;;;;18.69;71.95;100460.50;4986020;28;1636;-47
2021/05/15 01:31:09;;;;;;;;;;;;;;;18.69;72.11;100451.63;4984594;28;1601;-46
2021/05/15 01:33:35;;;;;;;;;;;;;;;18.71;72.02;100456.84;4983809;28;1678;-46
2021/05/15 01:36:01;;;;;;;;;;;;;;;18.65;71.54;100447.56;4983654;28;1648;-46
2021/05/15 01:38:28;;;;;;;;;;;;;;;18.68;71.79;100453.47;4980253;28;1092;-46
2021/05/15 01:40:55;;;;;;;;;;;;;;;18.71;72.11;100459.53;4985293;28;1466;-46
2021/05/15 01:43:21;;;;;;;;;;;;;;;18.67;72.07;100459.81;4976486;28;1674;-46
2021/05/15 01:45:47;;;;;;;;;;;;;;;18.67;72.12;100465.16;4984590;28;2067;-47
2021/05/15 01:48:16;;;;;;;;;;;;;;;18.66;72.64;100468.84;4986117;28;1089;-46
2021/05/15 01:50:44;;;;;;;;;;;;;;;18.64;72.27;100462.78;4986618;28;1950;-46
2021/05/15 01:53:10;;;;;;;;;;;;;;;18.64;72.41;100461.91;4987198;28;1581;-46
2021/05/15 01:55:37;;;;;;;;;;;;;;;18.63;71.79;100455.72;4982122;28;1585;-46
2021/05/15 01:58:03;;;;;;;;;;;;;;;18.60;71.58;100455.16;4983747;28;1627;-46
2021/05/15 02:03:00;;;;;;;;;;;;;;;18.60;71.49;100453.34;5033571;28;2083;-48
2021/05/15 02:05:29;;;;;;;;;;;;;;;18.60;71.75;100441.75;5047381;28;1910;-48
2021/05/15 02:07:56;;;;;;;;;;;;;;;18.62;71.23;100448.69;5039851;28;2109;-48
2021/05/15 02:10:23;;;;;;;;;;;;;;;18.61;71.52;100440.78;5047126;28;1700;-49
2021/05/15 02:12:55;;;;;;;;;;;;;;;18.60;72.18;100449.78;5040519;28;1808;-48
2021/05/15 02:15:21;;;;;;;;;;;;;;;18.60;72.00;100450.66;5032525;28;1850;-48
2021/05/15 02:17:48;;;;;;;;;;;;;;;18.61;71.88;100454.19;5033053;28;2011;-49
2021/05/15 02:20:14;;;;;;;;;;;;;;;18.62;71.69;100459.41;5041474;28;1805;-50
2021/05/15 02:22:41;;;;;;;;;;;;;;;18.62;72.47;100464.75;5051490;28;1422;-49
2021/05/15 02:25:09;;;;;;;;;;;;;;;18.65;72.28;100475.16;5037901;28;2184;-49
2021/05/15 02:27:35;;;;;;;;;;;;;;;18.62;73.09;100478.16;5036728;28;1902;-48
2021/05/15 02:30:05;;;;;;;;;;;;;;;18.61;73.92;100478.28;5032827;28;1303;-48
2021/05/15 02:32:33;;;;;;;;;;;;;;;18.61;72.78;100489.81;5032226;28;1267;-48
2021/05/15 02:35:00;;;;;;;;;;;;;;;18.60;71.34;100488.16;5032860;28;1677;-49
2021/05/15 02:37:30;;;;;;;;;;;;;;;18.58;71.50;100479.41;5051694;28;1668;-48
2021/05/15 02:39:59;;;;;;;;;;;;;;;18.55;71.43;100490.38;5051136;28;1511;-48
2021/05/15 02:42:26;;;;;;;;;;;;;;;18.56;71.93;100492.09;5032380;28;1019;-49
2021/05/15 02:44:52;;;;;;;;;;;;;;;18.54;71.90;100482.50;5035368;28;1440;-48
2021/05/15 02:47:23;;;;;;;;;;;;;;;18.54;71.76;100487.84;5041475;28;2067;-48
2021/05/15 02:49:53;;;;;;;;;;;;;;;18.53;71.75;100484.31;5046562;28;1399;-48
2021/05/15 02:52:20;;;;;;;;;;;;;;;18.54;72.38;100483.31;5049404;28;1829;-48
2021/05/15 02:54:47;;;;;;;;;;;;;;;18.53;71.94;100492.34;5043690;28;1289;-48
2021/05/15 02:57:21;;;;;;;;;;;;;;;18.51;71.35;100486.31;5044973;28;1354;-48
2021/05/15 02:59:48;;;;;;;;;;;;;;;18.53;71.54;100487.00;5045700;28;1609;-49
2021/05/15 03:02:15;;;;;;;;;;;;;;;18.54;71.17;100487.84;5040539;28;1730;-48
2021/05/15 03:04:47;;;;;;;;;;;;;;;18.51;71.67;100483.63;5049592;28;1505;-50
2021/05/15 03:07:13;;;;;;;;;;;;;;;18.50;72.12;100481.91;5049753;28;1975;-49
2021/05/15 03:09:44;;;;;;;;;;;;;;;18.52;71.84;100489.81;5045912;28;1502;-48
2021/05/15 03:12:10;;;;;;;;;;;;;;;18.52;72.28;100471.91;5036802;28;1417;-48
2021/05/15 03:14:37;;;;;;;;;;;;;;;18.50;72.09;100479.25;5032382;28;1909;-48
2021/05/15 03:17:04;;;;;;;;;;;;;;;18.51;71.59;100472.91;5032265;28;1760;-48
2021/05/15 03:19:32;;;;;;;;;;;;;;;18.54;72.35;100469.94;5045223;28;1089;-48
2021/05/15 03:22:02;;;;;;;;;;;;;;;18.50;72.04;100468.53;5049596;28;1627;-49
2021/05/15 03:24:28;;;;;;;;;;;;;;;18.53;72.72;100464.75;5050018;28;1431;-48
2021/05/15 03:26:54;;;;;;;;;;;;;;;18.53;72.23;100476.28;5051123;28;1977;-49
2021/05/15 03:29:21;;;;;;;;;;;;;;;18.53;72.58;100473.63;5037001;28;1707;-48
2021/05/15 03:32:01;;;;;;;;;;;;;;;18.55;71.93;100468.97;5035371;28;1083;-48
2021/05/15 03:34:28;;;;;;;;;;;;;;;18.56;72.21;100476.03;5035508;28;1139;-47
2021/05/15 03:36:57;;;;;;;;;;;;;;;18.56;72.85;100476.03;5051008;28;1490;-48
2021/05/15 03:39:28;;;;;;;;;;;;;;;18.58;71.96;100479.41;5051896;28;1455;-48
2021/05/15 03:41:55;;;;;;;;;;;;;;;18.56;71.98;100475.16;5035415;28;1171;-48
2021/05/15 03:44:35;;;;;;;;;;;;;;;18.63;72.92;100468.28;5045883;28;1842;-48
2021/05/15 03:47:03;;;;;;;;;;;;;;;18.63;73.42;100461.06;5048890;28;1906;-48
2021/05/15 03:49:31;;;;;;;;;;;;;;;18.64;72.99;100473.50;5039765;28;1648;-48
2021/05/15 03:51:59;;;;;;;;;;;;;;;18.62;72.69;100470.13;5041748;28;1581;-49
2021/05/15 03:54:28;;;;;;;;;;;;;;;18.66;73.71;100476.88;5053454;28;2191;-48
2021/05/15 03:56:55;;;;;;;;;;;;;;;18.66;73.79;100476.88;5052869;28;1928;-48
2021/05/15 03:59:21;;;;;;;;;;;;;;;18.67;73.61;100493.78;5048436;28;1607;-49
2021/05/15 04:01:48;;;;;;;;;;;;;;;18.63;73.91;100473.63;5051623;28;1453;-48
2021/05/15 04:04:15;;;;;;;;;;;;;;;18.72;73.14;100471.94;5034392;28;1908;-50
2021/05/15 04:06:43;;;;;;;;;;;;;;;18.76;72.81;100482.25;5050184;28;1981;-48
2021/05/15 04:09:10;;;;;;;;;;;;;;;18.82;71.85;100487.06;5041796;28;1435;-49
2021/05/15 04:11:40;;;;;;;;;;;;;;;18.92;71.69;100492.44;5041411;28;1433;-49
2021/05/15 04:14:24;;;;;;;;;;;;;;;19.00;71.37;100489.88;5034416;28;1146;-48
2021/05/15 04:17:16;;;;;;;;;;;;;;;19.06;71.64;100489.31;5039275;28;1161;-49
2021/05/15 04:19:46;;;;;;;;;;;;;;;19.13;70.13;100483.38;5053192;28;1087;-48
2021/05/15 04:22:12;;;;;;;;;;;;;;;19.20;71.08;100479.97;5045927;28;1579;-48
2021/05/15 04:24:38;;;;;;;;;;;;;;;19.28;70.57;100488.13;5034902;28;1672;-49
2021/05/15 04:27:09;;;;;;;;;;;;;;;19.36;70.12;100489.22;5034811;28;2269;-49
2021/05/15 04:29:40;;;;;;;;;;;;;;;19.33;71.24;100489.53;5046971;28;1278;-49
2021/05/15 04:32:09;;;;;;;;;;;;;;;19.37;69.41;100480.22;5044159;28;1413;-49
2021/05/15 04:34:38;;;;;;;;;;;;;;;19.38;67.88;100488.13;5051807;28;1561;-48
2021/05/15 04:37:05;;;;;;;;;;;;;;;19.43;67.89;100495.72;5035443;28;1107;-48
2021/05/15 04:39:33;;;;;;;;;;;;;;;19.39;67.12;100500.53;5043211;28;1444;-49
2021/05/15 04:42:00;;;;;;;;;;;;;;;19.56;69.00;100487.38;5044670;28;1557;-50
2021/05/15 04:44:32;;;;;;;;;;;;;;;19.57;67.32;100492.56;5052373;28;1636;-50
2021/05/15 04:46:58;;;;;;;;;;;;;;;19.52;67.89;100500.22;5051932;28;1914;-49
2021/05/15 04:49:25;;;;;;;;;;;;;;;19.36;67.93;100505.31;5047820;28;1446;-50
2021/05/15 04:51:54;;;;;;;;;;;;;;;19.30;67.93;100511.25;5052372;28;1721;-50
2021/05/15 04:54:21;;;;;;;;;;;;;;;19.26;68.83;100500.00;5047896;28;1442;-49
2021/05/15 04:56:56;;;;;;;;;;;;;;;19.34;68.73;100513.53;5036399;28;1410;-49
2021/05/15 04:59:22;;;;;;;;;;;;;;;19.29;69.20;100502.38;5048915;28;1701;-49
2021/05/15 05:02:00;;;;;;;;;;;;;;;19.32;68.97;100509.28;5052615;28;1622;-49
2021/05/15 05:04:26;;;;;;;;;;;;;;;19.36;69.85;100503.50;5049705;28;1537;-49
2021/05/15 05:06:53;;;;;;;;;;;;;;;19.48;71.05;100506.88;5051504;28;1973;-48
2021/05/15 05:09:20;;;;;;;;;;;;;;;19.53;71.11;100511.78;5051678;28;1983;-49
2021/05/15 05:11:55;;;;;;;;;;;;;;;19.51;72.14;100498.53;5052173;28;1928;-49
2021/05/15 05:14:23;;;;;;;;;;;;;;;19.51;68.87;100511.94;5038403;28;1529;-48
2021/05/15 05:17:02;;;;;;;;;;;;;;;19.54;67.73;100508.13;5038382;28;1019;-49
2021/05/15 05:19:30;;;;;;;;;;;;;;;19.56;67.96;100519.56;5036783;28;1603;-49
2021/05/15 05:22:02;;;;;;;;;;;;;;;19.54;68.09;100513.50;5036510;28;1752;-48
2021/05/15 05:24:29;;;;;;;;;;;;;;;19.52;68.60;100512.78;5049505;28;1258;-49
2021/05/15 05:26:56;;;;;;;;;;;;;;;19.48;67.83;100505.03;5051284;28;1906;-49
2021/05/15 05:29:28;;;;;;;;;;;;;;;19.53;69.48;100514.47;5052300;28;1616;-49
2021/05/15 05:32:11;;;;;;;;;;;;;;;19.48;68.65;100510.41;5035628;28;1707;-48
2021/05/15 05:34:41;;;;;;;;;;;;;;;19.45;69.59;100516.03;5041054;28;2044;-50
2021/05/15 05:37:08;;;;;;;;;;;;;;;19.41;69.17;100503.91;5040404;28;1071;-48
2021/05/15 05:39:44;;;;;;;;;;;;;;;19.39;69.36;100519.28;5049660;28;1767;-49
2021/05/15 05:42:17;;;;;;;;;;;;;;;19.36;69.59;100508.88;5031923;28;1163;-49
2021/05/15 05:44:44;;;;;;;;;;;;;;;19.37;69.83;100512.41;5029290;28;1712;-50
2021/05/15 05:47:12;;;;;;;;;;;;;;;19.37;69.13;100507.88;5036511;28;1969;-49
2021/05/15 05:49:59;;;;;;;;;;;;;;;19.37;70.35;100507.88;5037187;28;1614;-48
2021/05/15 05:52:26;;;;;;;;;;;;;;;19.36;69.96;100508.00;5046845;28;1668;-49
2021/05/15 05:54:56;;;;;;;;;;;;;;;19.43;69.55;100504.59;5037851;28;1217;-48
2021/05/15 05:57:22;;;;;;;;;;;;;;;19.45;69.36;100507.97;5042609;28;1613;-49
2021/05/15 05:59:48;;;;;;;;;;;;;;;19.44;69.24;100516.19;5036497;28;1629;-50
2021/05/15 06:02:15;;;;;;;;;;;;;;;19.47;69.74;100516.72;5040748;28;1597;-49
2021/05/15 06:04:42;;;;;;;;;;;;;;;19.47;69.43;100516.72;5044826;28;1489;-49
2021/05/15 06:07:09;;;;;;;;;;;;;;;19.49;69.22;100505.88;5035633;28;1906;-49
2021/05/15 06:09:35;;;;;;;;;;;;;;;19.51;69.49;100495.00;5039759;28;1765;-49
2021/05/15 06:12:01;;;;;;;;;;;;;;;19.54;69.03;100492.03;5043514;28;1226;-50
2021/05/15 06:14:29;;;;;;;;;;;;;;;19.61;68.71;100501.19;5021390;28;1381;-49
2021/05/15 06:16:56;;;;;;;;;;;;;;;19.69;68.17;100495.94;5044291;28;2571;-50
2021/05/15 06:25:00;;;;;;;;;;;;;;;19.71;68.57;100477.88;5031146;28;1792;-49
2021/05/15 06:27:29;;;;;;;;;;;;;;;19.73;67.84;100483.09;5041551;28;1910;-49
2021/05/15 06:29:56;;;;;;;;;;;;;;;19.68;67.52;100462.06;5046582;28;1965;-48
2021/05/15 06:32:26;;;;;;;;;;;;;;;19.72;68.33;100473.38;5042502;28;1683;-50
2021/05/15 06:34:53;;;;;;;;;;;;;;;19.80;67.49;100471.63;5038222;28;1553;-49
2021/05/15 06:37:20;;;;;;;;;;;;;;;19.93;66.77;100460.53;5036528;28;1109;-49
2021/05/15 06:39:47;;;;;;;;;;;;;;;19.91;66.28;100456.31;5046324;28;1450;-49
2021/05/15 06:42:15;;;;;;;;;;;;;;;19.85;66.89;100458.59;5042747;28;1432;-49
2021/05/15 06:44:42;;;;;;;;;;;;;;;19.81;65.87;100446.47;5037895;28;1763;-49
2021/05/15 06:47:17;;;;;;;;;;;;;;;19.91;66.02;100441.06;5038413;28;1971;-49
2021/05/15 06:49:44;;;;;;;;;;;;;;;19.85;65.78;100426.41;5047690;28;1380;-49
2021/05/15 06:52:15;;;;;;;;;;;;;;;19.89;66.06;100436.84;5042965;28;1680;-50
2021/05/15 06:54:46;;;;;;;;;;;;;;;19.86;62.17;100435.31;5037282;28;1660;-49
2021/05/15 06:57:12;;;;;;;;;;;;;;;19.74;63.03;100440.03;5047201;28;1380;-49
2021/05/15 06:59:38;;;;;;;;;;;;;;;19.73;62.39;100437.50;5034674;28;1616;-48
2021/05/15 07:02:05;;;;;;;;;;;;;;;19.74;62.24;100440.03;5038612;28;1665;-49
2021/05/15 07:04:31;;;;;;;;;;;;;;;19.68;63.44;100425.34;5052634;28;1549;-51
2021/05/15 07:07:01;;;;;;;;;;;;;;;19.66;63.10;100427.31;5049102;28;1914;-49
2021/05/15 07:09:27;;;;;;;;;;;;;;;19.65;62.90;100424.78;5052699;28;1450;-48
2021/05/15 07:11:54;;;;;;;;;;;;;;;19.68;62.11;100425.34;5039058;28;1434;-49
2021/05/15 07:17:02;;;;;;;;;;;;;;;20.05;62.38;100418.25;5039933;28;1830;-50
2021/05/15 07:19:31;;;;;;;;;;;;;;;20.23;62.45;100419.13;5051282;28;2652;-49
2021/05/15 07:22:00;;;;;;;;;;;;;;;20.33;61.59;100423.56;5059142;28;1670;-49
2021/05/15 07:24:29;;;;;;;;;;;;;;;20.40;60.91;100428.19;5055289;28;1508;-49
2021/05/15 07:27:12;;;;;;;;;;;;;;;20.49;62.03;100437.16;5051897;28;1906;-48
2021/05/15 07:29:53;;;;;;;;;;;;;;;20.59;62.94;100423.69;5048174;28;1560;-49
2021/05/15 07:32:29;;;;;;;;;;;;;;;20.61;63.81;100422.53;5042663;28;1949;-50
2021/05/15 07:34:57;;;;;;;;;;;;;;;20.59;62.64;100435.28;5035478;28;1510;-49
2021/05/15 07:37:28;;;;;;;;;;;;;;;20.61;62.74;100417.16;5053335;28;1427;-49
2021/05/15 07:39:55;;;;;;;;;;;;;;;20.65;62.96;100442.72;5049335;28;1601;-49
2021/05/15 07:42:24;;;;;;;;;;;;;;;20.64;63.11;100424.91;5053592;28;1336;-49
2021/05/15 07:44:59;;;;;;;;;;;;;;;20.65;63.88;100441.84;5037670;28;2751;-50
2021/05/15 07:47:29;;;;;;;;;;;;;;;20.68;64.48;100433.50;5049896;28;1910;-49
2021/05/15 07:49:56;;;;;;;;;;;;;;;20.74;62.42;100448.16;5049479;28;1882;-49
2021/05/15 07:52:22;;;;;;;;;;;;;;;20.74;62.37;100440.09;5048923;28;1672;-50
2021/05/15 07:54:48;;;;;;;;;;;;;;;20.77;62.60;100445.16;5052689;28;1609;-50
2021/05/15 07:57:25;;;;;;;;;;;;;;;20.63;65.50;100425.91;5052491;28;1561;-49
2021/05/15 07:59:52;;;;;;;;;;;;;;;20.44;66.97;100426.03;5046711;28;1489;-49
2021/05/15 08:02:21;;;;;;;;;;;;;;;20.59;65.05;100429.03;5037017;28;1616;-50
2021/05/15 08:04:48;;;;;;;;;;;;;;;20.52;65.02;100418.06;5052369;28;1126;-48
2021/05/15 08:07:21;;;;;;;;;;;;;;;20.42;67.65;100423.50;5050513;28;1909;-49
2021/05/15 08:09:48;;;;;;;;;;;;;;;20.32;67.61;100411.16;5046501;28;1805;-49
2021/05/15 08:12:18;;;;;;;;;;;;;;;20.43;65.58;100425.19;5045485;28;1403;-49
2021/05/15 08:14:44;;;;;;;;;;;;;;;20.49;65.72;100429.09;5048150;28;1442;-49
2021/05/15 08:17:12;;;;;;;;;;;;;;;20.54;66.28;100426.81;5052874;28;1596;-49
2021/05/15 08:19:39;;;;;;;;;;;;;;;20.51;65.61;100413.66;5052390;28;1314;-49
2021/05/15 08:22:05;;;;;;;;;;;;;;;20.46;66.57;100414.13;5048500;28;1839;-48
2021/05/15 08:27:15;;;;;;;;;;;;;;;20.57;64.69;100428.31;5048241;28;1910;-49
2021/05/15 08:29:43;;;;;;;;;;;;;;;20.34;66.92;100420.75;5048590;28;1424;-49
2021/05/15 08:32:09;;;;;;;;;;;;;;;20.27;65.17;100409.78;5052232;28;1973;-49
2021/05/15 08:37:18;;;;;;;;;;;;;;;20.32;65.46;100414.69;5052421;28;2284;-49
2021/05/15 08:39:48;;;;;;;;;;;;;;;20.34;64.68;100410.00;5048187;28;2067;-48
2021/05/15 08:42:25;;;;;;;;;;;;;;;20.27;65.67;100404.41;5033799;28;1095;-51
2021/05/15 08:44:57;;;;;;;;;;;;;;;20.30;64.15;100405.09;5034470;28;1624;-49
2021/05/15 08:47:24;;;;;;;;;;;;;;;20.33;63.69;100399.41;5050634;28;1902;-49
2021/05/15 08:49:58;;;;;;;;;;;;;;;20.33;62.53;100408.28;5052061;28;1488;-48
2021/05/15 08:52:32;;;;;;;;;;;;;;;20.36;62.37;100401.78;5047086;28;1912;-49
2021/05/15 08:54:58;;;;;;;;;;;;;;;20.36;63.14;100401.78;5039927;28;1525;-49
2021/05/15 08:57:25;;;;;;;;;;;;;;;20.42;61.65;100411.91;5040617;28;1403;-49
2021/05/15 08:59:52;;;;;;;;;;;;;;;20.44;61.70;100388.44;5051064;28;1249;-48
2021/05/15 09:02:18;;;;;;;;;;;;;;;20.41;61.45;100412.91;5044823;28;1430;-48
2021/05/15 09:04:45;;;;;;;;;;;;;;;20.36;62.60;100402.63;5044777;28;1574;-50
2021/05/15 09:07:14;;;;;;;;;;;;;;;20.36;62.23;100417.91;5043407;28;1977;-49
2021/05/15 09:09:44;;;;;;;;;;;;;;;20.27;62.69;100398.16;5049388;28;1692;-49
2021/05/15 09:12:10;;;;;;;;;;;;;;;20.33;61.69;100407.47;5044191;28;1726;-49
2021/05/15 09:14:36;;;;;;;;;;;;;;;20.41;61.29;100388.72;5045960;28;1720;-49
2021/05/15 09:17:02;;;;;;;;;;;;;;;20.42;61.31;100396.66;5038522;28;1465;-52
2021/05/15 09:19:30;;;;;;;;;;;;;;;20.29;62.27;100400.72;5046983;28;1482;-50
2021/05/15 09:21:57;;;;;;;;;;;;;;;20.23;62.76;100410.22;5052701;28;1796;-50
2021/05/15 09:24:44;;;;;;;;;;;;;;;20.23;61.74;100394.97;5050962;28;1623;-50
2021/05/15 09:27:12;;;;;;;;;;;;;;;20.30;57.94;100394.34;5052176;28;1973;-49
2021/05/15 09:29:42;;;;;;;;;;;;;;;19.85;56.88;100388.00;5033613;28;1748;-49
2021/05/15 09:32:09;;;;;;;;;;;;;;;20.01;59.66;100398.06;5049970;28;1392;-49
2021/05/15 09:34:42;;;;;;;;;;;;;;;20.12;61.04;100384.44;5047824;28;1581;-50
2021/05/15 09:37:09;;;;;;;;;;;;;;;20.17;61.06;100387.50;5052338;28;1312;-50
2021/05/15 09:39:36;;;;;;;;;;;;;;;20.22;61.46;100379.00;5048777;28;1859;-50
2021/05/15 09:42:03;;;;;;;;;;;;;;;20.33;61.67;100381.44;5040428;28;1394;-49
2021/05/15 09:47:17;;;;;;;;;;;;;;;20.27;61.16;100388.28;5049546;28;2243;-49
2021/05/15 09:49:44;;;;;;;;;;;;;;;20.34;61.64;100376.94;5051601;28;1740;-49
2021/05/15 09:52:13;;;;;;;;;;;;;;;20.49;61.79;100379.91;5051690;28;1620;-49
2021/05/15 09:54:43;;;;;;;;;;;;;;;20.40;62.46;100381.69;5043164;28;1542;-49
2021/05/15 09:57:11;;;;;;;;;;;;;;;20.37;62.66;100365.88;5038165;28;1263;-50
2021/05/15 09:59:38;;;;;;;;;;;;;;;20.31;61.95;100363.81;5042420;28;1237;-50
2021/05/15 10:02:05;;;;;;;;;;;;;;;20.23;62.85;100367.25;5044199;28;1449;-50
2021/05/15 10:04:32;;;;;;;;;;;;;;;20.21;62.75;100362.06;5050102;28;1346;-50
2021/05/15 10:07:01;;;;;;;;;;;;;;;20.19;62.46;100352.44;5041261;28;1967;-51
2021/05/15 10:09:30;;;;;;;;;;;;;;;20.26;62.16;100377.69;5042109;28;1505;-50
2021/05/15 10:11:57;;;;;;;;;;;;;;;20.25;62.06;100368.81;5048518;28;2171;-50
2021/05/15 10:14:24;;;;;;;;;;;;;;;20.20;61.08;100355.00;5044774;28;1486;-50
2021/05/15 10:16:52;;;;;;;;;;;;;;;20.24;61.60;100367.09;5051331;28;1056;-50
2021/05/15 10:19:20;;;;;;;;;;;;;;;20.25;61.53;100349.16;5045279;28;1222;-50
2021/05/15 10:21:47;;;;;;;;;;;;;;;20.41;60.29;100346.63;5045804;28;1768;-50
2021/05/15 10:24:20;;;;;;;;;;;;;;;20.44;60.78;100340.94;5046223;28;1482;-50
2021/05/15 10:26:47;;;;;;;;;;;;;;;20.41;62.06;100340.38;5047667;28;1906;-49
2021/05/15 10:29:14;;;;;;;;;;;;;;;20.39;61.55;100337.00;5045749;28;1467;-52
2021/05/15 10:31:40;;;;;;;;;;;;;;;20.35;62.35;100360.69;5048076;28;1366;-47
2021/05/15 10:34:07;;;;;;;;;;;;;;;20.37;63.06;100336.31;5041495;28;1571;-49
2021/05/15 10:36:42;;;;;;;;;;;;;;;20.47;63.09;100329.03;5044434;28;1599;-50
2021/05/15 10:39:08;;;;;;;;;;;;;;;20.29;63.12;100318.31;5035912;28;1954;-50
2021/05/15 10:41:43;;;;;;;;;;;;;;;20.33;63.14;100326.91;5050356;28;1517;-49
2021/05/15 10:44:11;;;;;;;;;;;;;;;20.37;63.56;100312.16;5052663;28;1569;-50
2021/05/15 10:46:47;;;;;;;;;;;;;;;20.43;63.93;100322.28;5047182;28;1910;-50
2021/05/15 10:49:17;;;;;;;;;;;;;;;20.50;63.34;100323.34;5043160;28;1649;-49
2021/05/15 10:51:46;;;;;;;;;;;;;;;20.49;63.50;100310.91;5046299;28;1444;-49
2021/05/15 10:54:15;;;;;;;;;;;;;;;20.56;61.96;100306.59;5047001;28;1421;-50
2021/05/15 10:56:49;;;;;;;;;;;;;;;20.54;64.43;100292.50;5041254;28;1385;-48
2021/05/15 11:02:14;;;;;;;;;;;;;;;20.46;62.79;100290.59;5048916;28;2636;-49
2021/05/15 11:04:50;;;;;;;;;;;;;;;20.39;64.75;100289.53;5045099;28;1359;-49
2021/05/15 11:07:20;;;;;;;;;;;;;;;20.38;62.76;100287.00;5048789;28;1979;-51
2021/05/15 11:09:55;;;;;;;;;;;;;;;20.35;62.11;100279.25;5049567;28;1738;-50
2021/05/15 11:12:25;;;;;;;;;;;;;;;20.38;64.13;100276.25;5048217;28;1417;-50
2021/05/15 11:14:51;;;;;;;;;;;;;;;20.42;62.94;100277.63;5047948;28;1336;-50
2021/05/15 11:17:31;;;;;;;;;;;;;;;20.48;63.16;100268.94;5049437;28;1567;-49
2021/05/15 11:20:16;;;;;;;;;;;;;;;20.47;61.81;100261.88;5045691;28;1544;-50
2021/05/15 11:22:47;;;;;;;;;;;;;;;20.45;63.33;100262.06;5041534;28;1522;-50
2021/05/15 11:25:27;;;;;;;;;;;;;;;20.39;62.69;100256.44;5040033;28;1573;-49
2021/05/15 11:28:02;;;;;;;;;;;;;;;20.38;62.51;100260.16;5046977;28;1902;-50
2021/05/15 11:30:39;;;;;;;;;;;;;;;20.39;63.58;100251.09;5045956;28;1512;-49
2021/05/15 11:33:11;;;;;;;;;;;;;;;20.37;62.49;100258.44;5048124;28;1264;-50
2021/05/15 11:35:58;;;;;;;;;;;;;;;20.32;62.21;100244.66;5041995;28;1625;-50
2021/05/15 11:38:26;;;;;;;;;;;;;;;20.31;62.81;100251.84;5051215;28;1587;-49
2021/05/15 11:40:53;;;;;;;;;;;;;;;20.36;62.17;100228.06;5050075;28;1568;-50
2021/05/15 11:43:21;;;;;;;;;;;;;;;20.41;63.45;100219.53;5037593;28;1531;-50
2021/05/15 11:45:47;;;;;;;;;;;;;;;20.51;63.03;100225.63;5050747;28;1750;-50
2021/05/15 11:48:23;;;;;;;;;;;;;;;20.45;63.63;100218.22;5050856;28;1981;-50
2021/05/15 11:50:59;;;;;;;;;;;;;;;20.53;62.21;100225.50;5050339;28;1402;-50
2021/05/15 11:53:25;;;;;;;;;;;;;;;20.50;62.21;100215.06;5049279;28;2028;-51
2021/05/15 11:55:52;;;;;;;;;;;;;;;20.48;61.75;100215.22;5045812;28;1620;-50
2021/05/15 11:58:21;;;;;;;;;;;;;;;20.47;62.06;100210.84;5050985;28;1474;-50
2021/05/15 12:01:11;;;;;;;;;;;;;;;20.49;63.43;100208.84;5053259;28;1553;-49
2021/05/15 12:03:46;;;;;;;;;;;;;;;20.57;62.02;100200.84;5006418;28;1346;-50
2021/05/15 12:06:14;;;;;;;;;;;;;;;20.11;57.07;100194.00;5010860;28;1615;-49
2021/05/15 12:08:45;;;;;;;;;;;;;;;20.06;58.23;100205.22;5015727;28;1557;-48
2021/05/15 12:11:13;;;;;;;;;;;;;;;19.98;58.01;100205.16;5014451;28;1554;-48
2021/05/15 12:13:51;;;;;;;;;;;;;;;19.86;59.39;100188.44;5007702;28;2031;-48
2021/05/15 12:16:18;;;;;;;;;;;;;;;19.82;59.41;100187.09;5011854;28;1565;-49
2021/05/15 12:18:50;;;;;;;;;;;;;;;19.88;59.63;100174.88;5008149;28;1768;-49
2021/05/15 12:21:16;;;;;;;;;;;;;;;19.83;60.01;100154.72;5006002;28;1829;-49
2021/05/15 12:23:43;;;;;;;;;;;;;;;19.78;59.69;100178.50;5015297;28;1709;-48
2021/05/15 12:26:10;;;;;;;;;;;;;;;19.83;58.80;100159.25;5009608;28;1764;-49
2021/05/15 12:28:42;;;;;;;;;;;;;;;19.94;60.35;100168.91;5004659;28;1902;-48
2021/05/15 12:31:19;;;;;;;;;;;;;;;19.86;59.97;100149.03;5008644;28;1784;-49
2021/05/15 12:33:45;;;;;;;;;;;;;;;20.03;60.02;100149.16;5011491;28;1728;-48
2021/05/15 12:36:12;;;;;;;;;;;;;;;20.06;62.69;100143.47;5012535;28;1525;-48
2021/05/15 12:38:44;;;;;;;;;;;;;;;20.08;65.01;100140.66;5012224;28;1415;-48
2021/05/15 12:41:11;;;;;;;;;;;;;;;20.05;65.95;100141.78;5006045;28;1757;-49
2021/05/15 12:43:39;;;;;;;;;;;;;;;20.04;66.11;100137.44;4997887;28;1589;-48
2021/05/15 12:46:09;;;;;;;;;;;;;;;20.03;66.08;100139.28;5005339;28;1685;-48
2021/05/15 12:48:42;;;;;;;;;;;;;;;20.02;64.98;100142.94;5004532;28;1964;-49
2021/05/15 12:51:09;;;;;;;;;;;;;;;20.00;66.40;100133.38;5004659;28;1610;-49
2021/05/15 12:53:36;;;;;;;;;;;;;;;19.99;66.42;100129.00;5003580;28;1053;-48
2021/05/15 12:56:03;;;;;;;;;;;;;;;19.99;65.25;100126.31;5008328;28;1614;-48
2021/05/15 12:58:29;;;;;;;;;;;;;;;20.00;65.81;100130.69;5004775;28;1847;-48
2021/05/15 13:00:59;;;;;;;;;;;;;;;19.96;65.82;100108.69;5003963;28;1410;-49
2021/05/15 13:03:25;;;;;;;;;;;;;;;19.96;65.41;100110.53;5043499;28;1681;-48
2021/05/15 13:05:52;;;;;;;;;;;;;;;19.98;65.22;100125.47;5043317;28;1681;-48
2021/05/15 13:08:18;;;;;;;;;;;;;;;19.95;65.45;100127.63;5041388;28;1971;-48
2021/05/15 13:10:45;;;;;;;;;;;;;;;19.98;64.37;100130.00;5043324;28;1644;-48
2021/05/15 13:13:11;;;;;;;;;;;;;;;19.97;64.99;100133.69;5043686;28;1696;-48
2021/05/15 13:15:39;;;;;;;;;;;;;;;19.97;64.54;100133.69;5043140;28;1633;-48
2021/05/15 13:18:13;;;;;;;;;;;;;;;19.95;64.21;100127.63;5043413;28;1610;-48